sensor_id;sensor_type;location;lat;lon;timestamp;P1;durP1;ratioP1;P2;durP2;ratioP2
12784;SDS011;6456;42.680;23.260;2023-09-19T00:01:05;6.47;;;4.53;;
12784;SDS011;6456;42.680;23.260;2023-09-19T00:03:34;5.47;;;4.93;;
12784;SDS011;6456;42.680;23.260;2023-09-19T00:06:04;6.20;;;4.73;;
12784;SDS011;6456;42.680;23.260;2023-09-19T00:08:32;6.37;;;5.00;;
12784;SDS011;6456;42.680;23.260;2023-09-19T00:10:59;6.73;;;4.90;;
12784;SDS011;6456;42.680;23.260;2023-09-19T00:13:31;5.23;;;4.73;;
12784;SDS011;6456;42.680;23.260;2023-09-19T00:15:58;7.53;;;4.53;;
12784;SDS011;6456;42.680;23.260;2023-09-19T00:18:25;6.30;;;4.97;;
12784;SDS011;6456;42.680;23.260;2023-09-19T00:20:57;5.83;;;4.70;;
12784;SDS011;6456;42.680;23.260;2023-09-19T00:23:25;5.80;;;4.50;;
12784;SDS011;6456;42.680;23.260;2023-09-19T00:25:53;5.27;;;4.63;;
12784;SDS011;6456;42.680;23.260;2023-09-19T00:28:23;5.17;;;4.47;;
12784;SDS011;6456;42.680;23.260;2023-09-19T00:30:51;5.70;;;5.10;;
12784;SDS011;6456;42.680;23.260;2023-09-19T00:33:20;4.90;;;4.40;;
12784;SDS011;6456;42.680;23.260;2023-09-19T00:35:47;5.30;;;4.67;;
12784;SDS011;6456;42.680;23.260;2023-09-19T00:38:15;5.70;;;4.67;;
12784;SDS011;6456;42.680;23.260;2023-09-19T00:40:44;5.40;;;4.90;;
12784;SDS011;6456;42.680;23.260;2023-09-19T00:43:12;6.87;;;5.00;;
12784;SDS011;6456;42.680;23.260;2023-09-19T00:45:41;5.83;;;5.33;;
12784;SDS011;6456;42.680;23.260;2023-09-19T00:48:10;5.73;;;5.17;;
12784;SDS011;6456;42.680;23.260;2023-09-19T00:50:38;6.10;;;5.50;;
12784;SDS011;6456;42.680;23.260;2023-09-19T00:53:09;7.43;;;5.20;;
12784;SDS011;6456;42.680;23.260;2023-09-19T00:55:39;7.17;;;5.27;;
12784;SDS011;6456;42.680;23.260;2023-09-19T00:58:09;5.60;;;4.90;;
12784;SDS011;6456;42.680;23.260;2023-09-19T01:00:37;6.93;;;5.63;;
12784;SDS011;6456;42.680;23.260;2023-09-19T01:03:06;6.57;;;5.97;;
12784;SDS011;6456;42.680;23.260;2023-09-19T01:05:34;6.33;;;5.73;;
12784;SDS011;6456;42.680;23.260;2023-09-19T01:08:02;6.60;;;5.90;;
12784;SDS011;6456;42.680;23.260;2023-09-19T01:10:29;6.47;;;5.80;;
12784;SDS011;6456;42.680;23.260;2023-09-19T01:12:59;8.97;;;5.97;;
12784;SDS011;6456;42.680;23.260;2023-09-19T01:15:37;6.80;;;5.73;;
12784;SDS011;6456;42.680;23.260;2023-09-19T01:18:14;6.27;;;5.10;;
12784;SDS011;6456;42.680;23.260;2023-09-19T01:20:51;7.57;;;5.73;;
12784;SDS011;6456;42.680;23.260;2023-09-19T01:23:27;7.53;;;5.60;;
12784;SDS011;6456;42.680;23.260;2023-09-19T01:26:17;6.13;;;5.50;;
12784;SDS011;6456;42.680;23.260;2023-09-19T01:29:01;6.47;;;5.40;;
12784;SDS011;6456;42.680;23.260;2023-09-19T01:31:46;7.83;;;5.90;;
12784;SDS011;6456;42.680;23.260;2023-09-19T01:34:15;6.37;;;5.77;;
12784;SDS011;6456;42.680;23.260;2023-09-19T01:36:43;6.57;;;5.73;;
12784;SDS011;6456;42.680;23.260;2023-09-19T01:39:11;6.30;;;5.70;;
12784;SDS011;6456;42.680;23.260;2023-09-19T01:41:49;7.10;;;5.57;;
12784;SDS011;6456;42.680;23.260;2023-09-19T01:44:25;6.83;;;6.23;;
12784;SDS011;6456;42.680;23.260;2023-09-19T01:47:00;6.50;;;5.87;;
12784;SDS011;6456;42.680;23.260;2023-09-19T01:49:37;6.60;;;6.00;;
12784;SDS011;6456;42.680;23.260;2023-09-19T01:52:12;6.60;;;5.87;;
12784;SDS011;6456;42.680;23.260;2023-09-19T01:54:41;6.80;;;6.10;;
12784;SDS011;6456;42.680;23.260;2023-09-19T01:57:17;5.73;;;5.23;;
12784;SDS011;6456;42.680;23.260;2023-09-19T01:59:50;6.37;;;5.77;;
12784;SDS011;6456;42.680;23.260;2023-09-19T02:02:23;7.47;;;5.93;;
12784;SDS011;6456;42.680;23.260;2023-09-19T02:04:52;7.00;;;6.20;;
12784;SDS011;6456;42.680;23.260;2023-09-19T02:07:21;7.00;;;5.87;;
12784;SDS011;6456;42.680;23.260;2023-09-19T02:09:49;6.67;;;6.10;;
12784;SDS011;6456;42.680;23.260;2023-09-19T02:12:16;6.93;;;5.43;;
12784;SDS011;6456;42.680;23.260;2023-09-19T02:14:43;8.27;;;5.97;;
12784;SDS011;6456;42.680;23.260;2023-09-19T02:17:10;10.37;;;6.00;;
12784;SDS011;6456;42.680;23.260;2023-09-19T02:19:39;7.57;;;5.70;;
12784;SDS011;6456;42.680;23.260;2023-09-19T02:22:06;6.40;;;5.80;;
12784;SDS011;6456;42.680;23.260;2023-09-19T02:24:35;6.93;;;5.93;;
12784;SDS011;6456;42.680;23.260;2023-09-19T02:27:03;7.17;;;6.07;;
12784;SDS011;6456;42.680;23.260;2023-09-19T02:29:31;6.97;;;5.73;;
12784;SDS011;6456;42.680;23.260;2023-09-19T02:31:59;6.47;;;5.87;;
12784;SDS011;6456;42.680;23.260;2023-09-19T02:34:26;6.50;;;5.90;;
12784;SDS011;6456;42.680;23.260;2023-09-19T02:36:55;6.83;;;6.13;;
12784;SDS011;6456;42.680;23.260;2023-09-19T02:39:22;8.00;;;5.77;;
12784;SDS011;6456;42.680;23.260;2023-09-19T02:41:49;7.77;;;6.30;;
12784;SDS011;6456;42.680;23.260;2023-09-19T02:44:16;6.60;;;6.00;;
12784;SDS011;6456;42.680;23.260;2023-09-19T02:46:45;7.07;;;6.23;;
12784;SDS011;6456;42.680;23.260;2023-09-19T02:49:12;13.13;;;6.67;;
12784;SDS011;6456;42.680;23.260;2023-09-19T02:51:39;6.50;;;5.90;;
12784;SDS011;6456;42.680;23.260;2023-09-19T02:54:08;7.93;;;6.10;;
12784;SDS011;6456;42.680;23.260;2023-09-19T02:56:35;7.07;;;5.53;;
12784;SDS011;6456;42.680;23.260;2023-09-19T02:59:03;8.07;;;6.30;;
12784;SDS011;6456;42.680;23.260;2023-09-19T03:01:31;6.77;;;6.13;;
12784;SDS011;6456;42.680;23.260;2023-09-19T03:03:58;9.63;;;6.33;;
12784;SDS011;6456;42.680;23.260;2023-09-19T03:06:25;7.53;;;5.67;;
12784;SDS011;6456;42.680;23.260;2023-09-19T03:08:53;6.57;;;5.97;;
12784;SDS011;6456;42.680;23.260;2023-09-19T03:11:23;7.37;;;6.50;;
12784;SDS011;6456;42.680;23.260;2023-09-19T03:13:52;7.27;;;6.03;;
12784;SDS011;6456;42.680;23.260;2023-09-19T03:16:21;7.93;;;5.70;;
12784;SDS011;6456;42.680;23.260;2023-09-19T03:18:48;6.63;;;6.07;;
12784;SDS011;6456;42.680;23.260;2023-09-19T03:21:15;7.17;;;6.47;;
12784;SDS011;6456;42.680;23.260;2023-09-19T03:23:44;7.50;;;6.37;;
12784;SDS011;6456;42.680;23.260;2023-09-19T03:26:12;7.33;;;6.60;;
12784;SDS011;6456;42.680;23.260;2023-09-19T03:28:42;9.20;;;6.63;;
12784;SDS011;6456;42.680;23.260;2023-09-19T03:31:11;7.40;;;6.60;;
12784;SDS011;6456;42.680;23.260;2023-09-19T03:33:38;7.43;;;6.63;;
12784;SDS011;6456;42.680;23.260;2023-09-19T03:36:06;9.23;;;6.53;;
12784;SDS011;6456;42.680;23.260;2023-09-19T03:38:33;7.73;;;6.30;;
12784;SDS011;6456;42.680;23.260;2023-09-19T03:41:01;7.77;;;6.70;;
12784;SDS011;6456;42.680;23.260;2023-09-19T03:43:28;6.83;;;6.17;;
12784;SDS011;6456;42.680;23.260;2023-09-19T03:45:56;7.77;;;6.37;;
12784;SDS011;6456;42.680;23.260;2023-09-19T03:48:28;7.47;;;6.70;;
12784;SDS011;6456;42.680;23.260;2023-09-19T03:50:56;8.33;;;6.33;;
12784;SDS011;6456;42.680;23.260;2023-09-19T03:53:23;8.73;;;6.93;;
12784;SDS011;6456;42.680;23.260;2023-09-19T03:55:50;9.07;;;7.13;;
12784;SDS011;6456;42.680;23.260;2023-09-19T03:58:17;9.80;;;7.77;;
12784;SDS011;6456;42.680;23.260;2023-09-19T04:00:44;7.83;;;6.57;;
12784;SDS011;6456;42.680;23.260;2023-09-19T04:03:12;10.37;;;7.23;;
12784;SDS011;6456;42.680;23.260;2023-09-19T04:05:44;22.07;;;8.33;;
12784;SDS011;6456;42.680;23.260;2023-09-19T04:08:12;23.70;;;7.67;;
12784;SDS011;6456;42.680;23.260;2023-09-19T04:10:41;12.40;;;7.60;;
12784;SDS011;6456;42.680;23.260;2023-09-19T04:13:08;8.87;;;6.77;;
12784;SDS011;6456;42.680;23.260;2023-09-19T04:15:36;10.47;;;7.50;;
12784;SDS011;6456;42.680;23.260;2023-09-19T04:18:03;14.07;;;7.23;;
12784;SDS011;6456;42.680;23.260;2023-09-19T04:20:32;11.07;;;7.63;;
12784;SDS011;6456;42.680;23.260;2023-09-19T04:22:59;9.77;;;7.47;;
12784;SDS011;6456;42.680;23.260;2023-09-19T04:25:26;14.97;;;7.20;;
12784;SDS011;6456;42.680;23.260;2023-09-19T04:27:53;13.17;;;8.00;;
12784;SDS011;6456;42.680;23.260;2023-09-19T04:30:20;18.10;;;8.80;;
12784;SDS011;6456;42.680;23.260;2023-09-19T04:32:47;16.23;;;8.37;;
12784;SDS011;6456;42.680;23.260;2023-09-19T04:35:15;15.90;;;8.87;;
12784;SDS011;6456;42.680;23.260;2023-09-19T04:37:44;20.30;;;8.33;;
12784;SDS011;6456;42.680;23.260;2023-09-19T04:40:11;16.90;;;8.03;;
12784;SDS011;6456;42.680;23.260;2023-09-19T04:42:42;19.70;;;8.40;;
12784;SDS011;6456;42.680;23.260;2023-09-19T04:45:09;14.73;;;7.63;;
12784;SDS011;6456;42.680;23.260;2023-09-19T04:47:36;17.57;;;8.30;;
12784;SDS011;6456;42.680;23.260;2023-09-19T04:50:05;17.83;;;8.17;;
12784;SDS011;6456;42.680;23.260;2023-09-19T04:52:38;22.03;;;8.67;;
12784;SDS011;6456;42.680;23.260;2023-09-19T04:55:09;16.13;;;8.30;;
12784;SDS011;6456;42.680;23.260;2023-09-19T04:57:42;19.00;;;8.03;;
12784;SDS011;6456;42.680;23.260;2023-09-19T05:00:11;16.93;;;7.67;;
12784;SDS011;6456;42.680;23.260;2023-09-19T05:02:40;19.20;;;8.33;;
12784;SDS011;6456;42.680;23.260;2023-09-19T05:05:07;17.40;;;8.43;;
12784;SDS011;6456;42.680;23.260;2023-09-19T05:07:35;15.47;;;7.93;;
12784;SDS011;6456;42.680;23.260;2023-09-19T05:10:02;14.67;;;7.40;;
12784;SDS011;6456;42.680;23.260;2023-09-19T05:12:33;10.73;;;7.60;;
12784;SDS011;6456;42.680;23.260;2023-09-19T05:15:01;13.23;;;7.73;;
12784;SDS011;6456;42.680;23.260;2023-09-19T05:17:28;15.43;;;8.00;;
12784;SDS011;6456;42.680;23.260;2023-09-19T05:19:56;11.33;;;8.40;;
12784;SDS011;6456;42.680;23.260;2023-09-19T05:22:23;10.23;;;8.27;;
12784;SDS011;6456;42.680;23.260;2023-09-19T05:24:50;9.80;;;7.77;;
12784;SDS011;6456;42.680;23.260;2023-09-19T05:27:18;9.90;;;7.47;;
12784;SDS011;6456;42.680;23.260;2023-09-19T05:29:47;10.07;;;7.63;;
12784;SDS011;6456;42.680;23.260;2023-09-19T05:32:16;13.53;;;7.87;;
12784;SDS011;6456;42.680;23.260;2023-09-19T05:34:44;7.90;;;7.20;;
12784;SDS011;6456;42.680;23.260;2023-09-19T05:37:12;13.60;;;8.17;;
12784;SDS011;6456;42.680;23.260;2023-09-19T05:39:39;11.53;;;7.87;;
12784;SDS011;6456;42.680;23.260;2023-09-19T05:42:06;9.30;;;8.13;;
12784;SDS011;6456;42.680;23.260;2023-09-19T05:44:33;12.63;;;7.53;;
12784;SDS011;6456;42.680;23.260;2023-09-19T05:47:02;10.90;;;7.57;;
12784;SDS011;6456;42.680;23.260;2023-09-19T05:49:29;8.33;;;7.53;;
12784;SDS011;6456;42.680;23.260;2023-09-19T05:51:56;10.47;;;7.90;;
12784;SDS011;6456;42.680;23.260;2023-09-19T05:54:24;9.77;;;7.23;;
12784;SDS011;6456;42.680;23.260;2023-09-19T05:56:50;10.63;;;8.30;;
12784;SDS011;6456;42.680;23.260;2023-09-19T05:59:18;12.37;;;7.97;;
12784;SDS011;6456;42.680;23.260;2023-09-19T06:01:45;9.50;;;7.83;;
12784;SDS011;6456;42.680;23.260;2023-09-19T06:04:13;9.13;;;7.57;;
12784;SDS011;6456;42.680;23.260;2023-09-19T06:06:40;12.93;;;7.83;;
12784;SDS011;6456;42.680;23.260;2023-09-19T06:09:07;12.43;;;8.57;;
12784;SDS011;6456;42.680;23.260;2023-09-19T06:11:34;12.30;;;8.77;;
12784;SDS011;6456;42.680;23.260;2023-09-19T06:14:01;11.43;;;8.30;;
12784;SDS011;6456;42.680;23.260;2023-09-19T06:16:28;9.70;;;7.90;;
12784;SDS011;6456;42.680;23.260;2023-09-19T06:18:57;9.77;;;8.03;;
12784;SDS011;6456;42.680;23.260;2023-09-19T06:21:26;11.00;;;8.10;;
12784;SDS011;6456;42.680;23.260;2023-09-19T06:23:53;11.23;;;8.17;;
12784;SDS011;6456;42.680;23.260;2023-09-19T06:26:20;10.77;;;8.40;;
12784;SDS011;6456;42.680;23.260;2023-09-19T06:28:48;11.30;;;8.30;;
12784;SDS011;6456;42.680;23.260;2023-09-19T06:31:16;9.23;;;8.13;;
12784;SDS011;6456;42.680;23.260;2023-09-19T06:33:43;10.90;;;8.70;;
12784;SDS011;6456;42.680;23.260;2023-09-19T06:36:10;10.13;;;7.73;;
12784;SDS011;6456;42.680;23.260;2023-09-19T06:38:38;12.33;;;8.97;;
12784;SDS011;6456;42.680;23.260;2023-09-19T06:41:06;11.07;;;7.97;;
12784;SDS011;6456;42.680;23.260;2023-09-19T06:43:34;12.67;;;8.50;;
12784;SDS011;6456;42.680;23.260;2023-09-19T06:46:01;8.87;;;7.33;;
12784;SDS011;6456;42.680;23.260;2023-09-19T06:48:30;8.87;;;7.50;;
12784;SDS011;6456;42.680;23.260;2023-09-19T06:50:58;9.87;;;7.53;;
12784;SDS011;6456;42.680;23.260;2023-09-19T06:53:28;11.97;;;7.63;;
12784;SDS011;6456;42.680;23.260;2023-09-19T06:55:58;9.13;;;8.00;;
12784;SDS011;6456;42.680;23.260;2023-09-19T06:58:25;8.77;;;7.37;;
12784;SDS011;6456;42.680;23.260;2023-09-19T07:00:52;9.67;;;6.80;;
12784;SDS011;6456;42.680;23.260;2023-09-19T07:03:19;9.07;;;7.33;;
12784;SDS011;6456;42.680;23.260;2023-09-19T07:05:50;9.80;;;7.23;;
12784;SDS011;6456;42.680;23.260;2023-09-19T07:08:21;9.90;;;6.40;;
12784;SDS011;6456;42.680;23.260;2023-09-19T07:10:48;7.87;;;6.90;;
12784;SDS011;6456;42.680;23.260;2023-09-19T07:13:20;11.47;;;7.40;;
12784;SDS011;6456;42.680;23.260;2023-09-19T07:15:47;10.87;;;6.97;;
12784;SDS011;6456;42.680;23.260;2023-09-19T07:18:15;8.90;;;7.07;;
12784;SDS011;6456;42.680;23.260;2023-09-19T07:20:43;6.77;;;6.07;;
12784;SDS011;6456;42.680;23.260;2023-09-19T07:23:14;9.10;;;7.00;;
12784;SDS011;6456;42.680;23.260;2023-09-19T07:25:41;6.87;;;6.07;;
12784;SDS011;6456;42.680;23.260;2023-09-19T07:28:08;7.00;;;6.30;;
12784;SDS011;6456;42.680;23.260;2023-09-19T07:30:37;7.17;;;6.43;;
12784;SDS011;6456;42.680;23.260;2023-09-19T07:33:04;9.17;;;6.10;;
12784;SDS011;6456;42.680;23.260;2023-09-19T07:35:32;11.07;;;6.30;;
12784;SDS011;6456;42.680;23.260;2023-09-19T07:37:59;10.77;;;6.40;;
12784;SDS011;6456;42.680;23.260;2023-09-19T07:40:27;6.93;;;5.60;;
12784;SDS011;6456;42.680;23.260;2023-09-19T07:42:55;7.27;;;6.00;;
12784;SDS011;6456;42.680;23.260;2023-09-19T07:45:22;8.17;;;6.50;;
12784;SDS011;6456;42.680;23.260;2023-09-19T07:47:51;6.93;;;6.23;;
12784;SDS011;6456;42.680;23.260;2023-09-19T07:50:19;7.70;;;6.30;;
12784;SDS011;6456;42.680;23.260;2023-09-19T07:52:46;10.20;;;6.03;;
12784;SDS011;6456;42.680;23.260;2023-09-19T07:55:13;7.03;;;6.27;;
12784;SDS011;6456;42.680;23.260;2023-09-19T07:57:42;10.43;;;6.43;;
12784;SDS011;6456;42.680;23.260;2023-09-19T08:00:09;7.97;;;5.83;;
12784;SDS011;6456;42.680;23.260;2023-09-19T08:02:37;8.07;;;6.17;;
12784;SDS011;6456;42.680;23.260;2023-09-19T08:05:07;11.27;;;6.53;;
12784;SDS011;6456;42.680;23.260;2023-09-19T08:07:35;13.20;;;6.40;;
12784;SDS011;6456;42.680;23.260;2023-09-19T08:10:02;7.77;;;5.57;;
12784;SDS011;6456;42.680;23.260;2023-09-19T08:12:32;10.53;;;6.53;;
12784;SDS011;6456;42.680;23.260;2023-09-19T08:15:01;10.37;;;7.90;;
12784;SDS011;6456;42.680;23.260;2023-09-19T08:17:29;9.83;;;6.50;;
12784;SDS011;6456;42.680;23.260;2023-09-19T08:20:00;9.88;;;6.75;;
12784;SDS011;6456;42.680;23.260;2023-09-19T08:22:31;7.67;;;6.70;;
12784;SDS011;6456;42.680;23.260;2023-09-19T08:25:00;10.13;;;6.35;;
12784;SDS011;6456;42.680;23.260;2023-09-19T08:27:30;9.88;;;6.85;;
12784;SDS011;6456;42.680;23.260;2023-09-19T08:29:56;7.50;;;6.63;;
12784;SDS011;6456;42.680;23.260;2023-09-19T08:32:23;9.77;;;7.22;;
12784;SDS011;6456;42.680;23.260;2023-09-19T08:34:52;8.57;;;7.00;;
12784;SDS011;6456;42.680;23.260;2023-09-19T08:37:19;12.15;;;7.25;;
12784;SDS011;6456;42.680;23.260;2023-09-19T08:39:48;7.85;;;6.50;;
12784;SDS011;6456;42.680;23.260;2023-09-19T08:42:15;10.30;;;6.35;;
12784;SDS011;6456;42.680;23.260;2023-09-19T08:44:43;8.18;;;6.10;;
12784;SDS011;6456;42.680;23.260;2023-09-19T08:47:10;7.85;;;6.55;;
12784;SDS011;6456;42.680;23.260;2023-09-19T08:49:41;11.55;;;6.90;;
12784;SDS011;6456;42.680;23.260;2023-09-19T08:52:16;9.38;;;6.32;;
12784;SDS011;6456;42.680;23.260;2023-09-19T08:54:50;9.48;;;6.82;;
12784;SDS011;6456;42.680;23.260;2023-09-19T08:57:21;7.43;;;5.68;;
12784;SDS011;6456;42.680;23.260;2023-09-19T08:59:49;10.02;;;6.60;;
12784;SDS011;6456;42.680;23.260;2023-09-19T09:02:19;6.20;;;5.65;;
12784;SDS011;6456;42.680;23.260;2023-09-19T09:04:48;9.00;;;6.00;;
12784;SDS011;6456;42.680;23.260;2023-09-19T09:07:17;9.70;;;7.07;;
12784;SDS011;6456;42.680;23.260;2023-09-19T09:09:46;7.88;;;6.60;;
12784;SDS011;6456;42.680;23.260;2023-09-19T09:12:14;8.25;;;6.00;;
12784;SDS011;6456;42.680;23.260;2023-09-19T09:14:43;11.35;;;6.38;;
12784;SDS011;6456;42.680;23.260;2023-09-19T09:17:12;7.68;;;5.38;;
12784;SDS011;6456;42.680;23.260;2023-09-19T09:19:40;12.07;;;6.10;;
12784;SDS011;6456;42.680;23.260;2023-09-19T09:22:08;12.20;;;6.45;;
12784;SDS011;6456;42.680;23.260;2023-09-19T09:24:36;8.55;;;5.80;;
12784;SDS011;6456;42.680;23.260;2023-09-19T09:27:05;11.13;;;6.10;;
12784;SDS011;6456;42.680;23.260;2023-09-19T09:29:43;7.22;;;6.35;;
12784;SDS011;6456;42.680;23.260;2023-09-19T09:32:20;6.88;;;6.25;;
12784;SDS011;6456;42.680;23.260;2023-09-19T09:34:50;8.00;;;5.65;;
12784;SDS011;6456;42.680;23.260;2023-09-19T09:37:18;7.63;;;5.75;;
12784;SDS011;6456;42.680;23.260;2023-09-19T09:39:50;7.85;;;5.75;;
12784;SDS011;6456;42.680;23.260;2023-09-19T09:42:30;9.77;;;5.90;;
12784;SDS011;6456;42.680;23.260;2023-09-19T09:45:14;8.60;;;5.57;;
12784;SDS011;6456;42.680;23.260;2023-09-19T09:47:43;7.30;;;5.70;;
12784;SDS011;6456;42.680;23.260;2023-09-19T09:50:25;8.82;;;5.65;;
12784;SDS011;6456;42.680;23.260;2023-09-19T09:53:04;8.70;;;5.63;;
12784;SDS011;6456;42.680;23.260;2023-09-19T09:56:01;10.48;;;6.03;;
12784;SDS011;6456;42.680;23.260;2023-09-19T09:58:31;7.82;;;5.75;;
12784;SDS011;6456;42.680;23.260;2023-09-19T10:01:00;7.22;;;5.93;;
12784;SDS011;6456;42.680;23.260;2023-09-19T10:03:34;7.45;;;5.95;;
12784;SDS011;6456;42.680;23.260;2023-09-19T10:06:08;9.57;;;6.03;;
12784;SDS011;6456;42.680;23.260;2023-09-19T10:09:00;10.98;;;5.25;;
12784;SDS011;6456;42.680;23.260;2023-09-19T10:11:38;9.65;;;5.70;;
12784;SDS011;6456;42.680;23.260;2023-09-19T10:14:09;7.00;;;5.53;;
12784;SDS011;6456;42.680;23.260;2023-09-19T10:16:38;12.35;;;6.20;;
12784;SDS011;6456;42.680;23.260;2023-09-19T10:19:12;6.10;;;5.60;;
12784;SDS011;6456;42.680;23.260;2023-09-19T10:21:47;12.05;;;6.10;;
12784;SDS011;6456;42.680;23.260;2023-09-19T10:24:15;6.10;;;5.25;;
12784;SDS011;6456;42.680;23.260;2023-09-19T10:26:45;7.03;;;5.70;;
12784;SDS011;6456;42.680;23.260;2023-09-19T10:29:15;8.95;;;6.00;;
12784;SDS011;6456;42.680;23.260;2023-09-19T10:31:48;10.25;;;5.80;;
12784;SDS011;6456;42.680;23.260;2023-09-19T10:34:15;10.98;;;5.70;;
12784;SDS011;6456;42.680;23.260;2023-09-19T10:36:44;7.03;;;5.72;;
12784;SDS011;6456;42.680;23.260;2023-09-19T10:39:14;8.00;;;5.55;;
12784;SDS011;6456;42.680;23.260;2023-09-19T10:41:47;8.98;;;5.97;;
12784;SDS011;6456;42.680;23.260;2023-09-19T10:44:22;7.13;;;5.22;;
12784;SDS011;6456;42.680;23.260;2023-09-19T10:46:52;6.32;;;4.78;;
12784;SDS011;6456;42.680;23.260;2023-09-19T10:49:19;6.65;;;5.30;;
12784;SDS011;6456;42.680;23.260;2023-09-19T10:51:47;7.05;;;5.50;;
12784;SDS011;6456;42.680;23.260;2023-09-19T10:54:18;6.60;;;5.68;;
12784;SDS011;6456;42.680;23.260;2023-09-19T10:56:52;7.38;;;5.32;;
12784;SDS011;6456;42.680;23.260;2023-09-19T10:59:24;5.85;;;4.78;;
12784;SDS011;6456;42.680;23.260;2023-09-19T11:02:15;5.97;;;4.55;;
12784;SDS011;6456;42.680;23.260;2023-09-19T11:04:43;13.98;;;5.35;;
12784;SDS011;6456;42.680;23.260;2023-09-19T11:07:13;10.57;;;5.00;;
12784;SDS011;6456;42.680;23.260;2023-09-19T11:09:48;9.30;;;4.82;;
12784;SDS011;6456;42.680;23.260;2023-09-19T11:27:14;8.57;;;5.00;;
12784;SDS011;6456;42.680;23.260;2023-09-19T11:29:43;8.20;;;5.32;;
12784;SDS011;6456;42.680;23.260;2023-09-19T11:32:10;11.10;;;5.40;;
12784;SDS011;6456;42.680;23.260;2023-09-19T11:34:43;5.68;;;4.80;;
12784;SDS011;6456;42.680;23.260;2023-09-19T11:40:44;7.35;;;4.93;;
12784;SDS011;6456;42.680;23.260;2023-09-19T11:43:29;9.45;;;5.07;;
12784;SDS011;6456;42.680;23.260;2023-09-19T11:46:05;12.60;;;5.40;;
12784;SDS011;6456;42.680;23.260;2023-09-19T11:48:37;9.27;;;4.97;;
12784;SDS011;6456;42.680;23.260;2023-09-19T11:51:14;7.72;;;5.18;;
12784;SDS011;6456;42.680;23.260;2023-09-19T11:53:48;6.78;;;5.32;;
12784;SDS011;6456;42.680;23.260;2023-09-19T11:56:16;6.03;;;4.97;;
12784;SDS011;6456;42.680;23.260;2023-09-19T11:58:44;7.53;;;5.47;;
12784;SDS011;6456;42.680;23.260;2023-09-19T12:01:15;6.10;;;4.38;;
12784;SDS011;6456;42.680;23.260;2023-09-19T12:03:54;5.82;;;4.57;;
12784;SDS011;6456;42.680;23.260;2023-09-19T12:06:48;9.30;;;5.50;;
12784;SDS011;6456;42.680;23.260;2023-09-19T12:09:26;12.52;;;5.25;;
12784;SDS011;6456;42.680;23.260;2023-09-19T12:11:57;14.90;;;6.00;;
12784;SDS011;6456;42.680;23.260;2023-09-19T12:14:24;6.75;;;5.20;;
12784;SDS011;6456;42.680;23.260;2023-09-19T12:16:53;14.20;;;5.20;;
12784;SDS011;6456;42.680;23.260;2023-09-19T12:19:22;9.57;;;5.47;;
12784;SDS011;6456;42.680;23.260;2023-09-19T12:22:00;9.43;;;5.07;;
12784;SDS011;6456;42.680;23.260;2023-09-19T12:24:30;6.00;;;5.15;;
12784;SDS011;6456;42.680;23.260;2023-09-19T12:27:00;6.78;;;5.22;;
12784;SDS011;6456;42.680;23.260;2023-09-19T12:29:30;9.15;;;5.28;;
12784;SDS011;6456;42.680;23.260;2023-09-19T12:32:11;5.88;;;5.10;;
12784;SDS011;6456;42.680;23.260;2023-09-19T12:34:51;7.85;;;4.93;;
12784;SDS011;6456;42.680;23.260;2023-09-19T12:37:26;7.90;;;5.03;;
12784;SDS011;6456;42.680;23.260;2023-09-19T12:40:03;8.20;;;5.00;;
12784;SDS011;6456;42.680;23.260;2023-09-19T12:42:41;7.55;;;5.20;;
12784;SDS011;6456;42.680;23.260;2023-09-19T12:45:10;9.00;;;5.20;;
12784;SDS011;6456;42.680;23.260;2023-09-19T12:47:41;12.05;;;5.68;;
12784;SDS011;6456;42.680;23.260;2023-09-19T12:51:06;9.60;;;5.32;;
12784;SDS011;6456;42.680;23.260;2023-09-19T12:53:36;5.97;;;5.38;;
12784;SDS011;6456;42.680;23.260;2023-09-19T12:56:05;7.65;;;5.18;;
12784;SDS011;6456;42.680;23.260;2023-09-19T12:58:34;8.80;;;5.15;;
12784;SDS011;6456;42.680;23.260;2023-09-19T13:01:14;6.47;;;5.55;;
12784;SDS011;6456;42.680;23.260;2023-09-19T13:03:41;8.85;;;5.68;;
12784;SDS011;6456;42.680;23.260;2023-09-19T13:06:08;7.70;;;5.20;;
12784;SDS011;6456;42.680;23.260;2023-09-19T13:08:38;8.55;;;5.15;;
12784;SDS011;6456;42.680;23.260;2023-09-19T13:11:10;7.82;;;5.25;;
12784;SDS011;6456;42.680;23.260;2023-09-19T13:13:39;7.72;;;5.25;;
12784;SDS011;6456;42.680;23.260;2023-09-19T13:16:09;10.27;;;4.97;;
12784;SDS011;6456;42.680;23.260;2023-09-19T13:18:44;9.82;;;4.70;;
12784;SDS011;6456;42.680;23.260;2023-09-19T13:21:14;9.55;;;5.22;;
12784;SDS011;6456;42.680;23.260;2023-09-19T13:23:55;6.70;;;4.63;;
12784;SDS011;6456;42.680;23.260;2023-09-19T13:26:24;7.40;;;4.97;;
12784;SDS011;6456;42.680;23.260;2023-09-19T13:28:53;7.18;;;4.90;;
12784;SDS011;6456;42.680;23.260;2023-09-19T13:31:20;16.73;;;6.32;;
12784;SDS011;6456;42.680;23.260;2023-09-19T13:33:48;9.00;;;4.60;;
12784;SDS011;6456;42.680;23.260;2023-09-19T13:36:17;8.30;;;4.63;;
12784;SDS011;6456;42.680;23.260;2023-09-19T13:38:44;7.10;;;5.18;;
12784;SDS011;6456;42.680;23.260;2023-09-19T13:41:15;6.45;;;5.38;;
12784;SDS011;6456;42.680;23.260;2023-09-19T13:43:50;11.35;;;6.05;;
12784;SDS011;6456;42.680;23.260;2023-09-19T13:46:17;10.60;;;5.00;;
12784;SDS011;6456;42.680;23.260;2023-09-19T13:48:50;5.10;;;4.30;;
12784;SDS011;6456;42.680;23.260;2023-09-19T13:51:19;6.85;;;4.88;;
12784;SDS011;6456;42.680;23.260;2023-09-19T13:53:48;8.80;;;4.63;;
12784;SDS011;6456;42.680;23.260;2023-09-19T13:56:22;9.90;;;5.43;;
12784;SDS011;6456;42.680;23.260;2023-09-19T13:58:53;8.23;;;6.85;;
12784;SDS011;6456;42.680;23.260;2023-09-19T14:01:23;11.23;;;5.25;;
12784;SDS011;6456;42.680;23.260;2023-09-19T14:03:52;9.75;;;5.32;;
12784;SDS011;6456;42.680;23.260;2023-09-19T14:06:21;9.30;;;4.60;;
12784;SDS011;6456;42.680;23.260;2023-09-19T14:08:48;8.98;;;4.95;;
12784;SDS011;6456;42.680;23.260;2023-09-19T14:11:22;8.80;;;5.15;;
12784;SDS011;6456;42.680;23.260;2023-09-19T14:13:49;7.60;;;4.85;;
12784;SDS011;6456;42.680;23.260;2023-09-19T14:16:19;6.95;;;4.47;;
12784;SDS011;6456;42.680;23.260;2023-09-19T14:18:49;10.40;;;5.10;;
12784;SDS011;6456;42.680;23.260;2023-09-19T14:21:18;6.95;;;5.05;;
12784;SDS011;6456;42.680;23.260;2023-09-19T14:23:45;13.10;;;4.57;;
12784;SDS011;6456;42.680;23.260;2023-09-19T14:26:14;10.20;;;4.53;;
12784;SDS011;6456;42.680;23.260;2023-09-19T14:28:48;6.90;;;4.55;;
12784;SDS011;6456;42.680;23.260;2023-09-19T14:31:17;12.05;;;6.15;;
12784;SDS011;6456;42.680;23.260;2023-09-19T14:33:53;5.53;;;4.25;;
12784;SDS011;6456;42.680;23.260;2023-09-19T14:36:24;12.73;;;5.43;;
12784;SDS011;6456;42.680;23.260;2023-09-19T14:38:52;11.20;;;5.57;;
12784;SDS011;6456;42.680;23.260;2023-09-19T14:41:22;8.20;;;5.03;;
12784;SDS011;6456;42.680;23.260;2023-09-19T14:43:52;10.02;;;5.30;;
12784;SDS011;6456;42.680;23.260;2023-09-19T14:46:20;7.57;;;4.68;;
12784;SDS011;6456;42.680;23.260;2023-09-19T14:48:49;14.52;;;5.57;;
12784;SDS011;6456;42.680;23.260;2023-09-19T14:51:17;8.88;;;5.40;;
12784;SDS011;6456;42.680;23.260;2023-09-19T14:53:50;9.82;;;5.85;;
12784;SDS011;6456;42.680;23.260;2023-09-19T14:56:17;12.23;;;5.90;;
12784;SDS011;6456;42.680;23.260;2023-09-19T14:58:45;12.25;;;5.50;;
12784;SDS011;6456;42.680;23.260;2023-09-19T15:01:13;10.45;;;5.88;;
12784;SDS011;6456;42.680;23.260;2023-09-19T15:03:40;10.18;;;4.93;;
12784;SDS011;6456;42.680;23.260;2023-09-19T15:06:08;10.80;;;6.03;;
12784;SDS011;6456;42.680;23.260;2023-09-19T15:08:41;11.93;;;5.95;;
12784;SDS011;6456;42.680;23.260;2023-09-19T15:11:11;13.93;;;6.15;;
12784;SDS011;6456;42.680;23.260;2023-09-19T15:13:42;9.18;;;6.30;;
12784;SDS011;6456;42.680;23.260;2023-09-19T15:16:16;7.70;;;5.55;;
12784;SDS011;6456;42.680;23.260;2023-09-19T15:18:44;9.55;;;6.25;;